Time,TemperatureF,DewpointF,PressureIn,WindDirection,WindDirectionDegrees,WindSpeedMPH,WindSpeedGustMPH,Humidity,HourlyPrecipIn,Conditions,Clouds,dailyrainin,SoftwareType,DateUTC
2013-09-29 00:04:00,61.2,58.5,30.03,SE,125,0.0,1.0,91,0.00,RA,FEW,0.00,WeatherDisplay:10.37,2013-09-29 04:04:00,
2013-09-29 00:09:00,61.2,58.5,30.03,SE,126,0.0,0.0,91,0.00,RA,FEW,0.00,WeatherDisplay:10.37,2013-09-29 04:09:00,
2013-09-29 00:14:00,61.2,58.5,30.03,SE,125,0.0,0.0,91,0.00,CLR,FEW,0.00,WeatherDisplay:10.37,2013-09-29 04:14:00,
2013-09-29 00:19:00,60.6,58.0,30.03,ESE,123,0.0,0.0,91,0.00,CLR,FEW,0.00,WeatherDisplay:10.37,2013-09-29 04:19:00,
2013-09-29 00:24:00,60.4,57.8,30.03,ESE,119,0.0,0.0,91,0.00,CLR,FEW,0.00,WeatherDisplay:10.37,2013-09-29 04:24:00,
2013-09-29 00:29:00,60.8,58.2,30.03,ESE,110,0.0,1.0,91,0.00,CLR,FEW,0.00,WeatherDisplay:10.37,2013-09-29 04:29:00,
2013-09-29 00:39:00,60.8,58.2,30.03,SE,126,0.0,0.0,91,0.00,CLR,FEW,0.00,WeatherDisplay:10.37,2013-09-29 04:39:00,
2013-09-29 00:49:00,60.8,57.8,30.03,SE,134,1.0,5.0,90,0.00,CLR,FEW,0.00,WeatherDisplay:10.37,2013-09-29 04:49:00,
2013-09-29 00:59:00,60.4,57.5,30.03,SSE,163,1.0,1.0,90,0.00,CLR,FEW,0.00,WeatherDisplay:10.37,2013-09-29 04:59:00,
2013-09-29 01:04:00,60.4,57.2,30.03,SE,131,2.0,5.0,89,0.00,CLR,FEW,0.00,WeatherDisplay:10.37,2013-09-29 05:04:00,
2013-09-29 01:09:00,60.4,57.2,30.03,ESE,123,1.0,1.0,89,0.00,CLR,FEW,0.00,WeatherDisplay:10.37,2013-09-29 05:09:00,
2013-09-29 01:19:00,60.8,57.5,30.03,ESE,109,2.0,6.0,89,0.00,CLR,FEW,0.00,WeatherDisplay:10.37,2013-09-29 05:19:00,
2013-09-29 01:29:00,60.4,57.2,30.03,SE,128,2.0,5.0,89,0.00,CLR,FEW,0.00,WeatherDisplay:10.37,2013-09-29 05:29:00,
2013-09-29 01:39:00,60.4,57.2,30.03,East,92,1.0,0.0,89,0.00,CLR,FEW,0.00,WeatherDisplay:10.37,2013-09-29 05:39:00,
2013-09-29 01:49:00,60.1,56.8,30.03,SE,140,0.0,1.0,89,0.00,CLR,FEW,0.00,WeatherDisplay:10.37,2013-09-29 05:49:00,
2013-09-29 01:59:00,59.7,56.5,30.03,SE,139,0.0,1.0,89,0.00,CLR,FEW,0.00,WeatherDisplay:10.37,2013-09-29 05:59:00,
2013-09-29 02:04:00,59.5,56.3,30.03,ESE,116,0.0,1.0,89,0.00,CLR,FEW,0.00,WeatherDisplay:10.37,2013-09-29 06:04:00,
2013-09-29 02:09:00,59.5,56.3,30.03,ESE,110,0.0,0.0,89,0.00,CLR,FEW,0.00,WeatherDisplay:10.37,2013-09-29 06:09:00,
2013-09-29 02:19:00,59.2,56.6,30.03,SE,133,0.0,0.0,91,0.00,CLR,FEW,0.00,WeatherDisplay:10.37,2013-09-29 06:19:00,
2013-09-29 02:29:00,59.0,56.4,30.03,SE,138,0.0,0.0,91,0.00,CLR,FEW,0.00,WeatherDisplay:10.37,2013-09-29 06:29:00,
2013-09-29 02:39:00,58.6,56.0,30.03,ESE,106,0.0,1.0,91,0.00,CLR,FEW,0.00,WeatherDisplay:10.37,2013-09-29 06:39:00,
2013-09-29 02:49:00,58.5,56.4,30.03,SE,143,0.0,1.0,93,0.00,CLR,FEW,0.00,WeatherDisplay:10.37,2013-09-29 06:49:00,
2013-09-29 02:59:00,58.1,56.1,30.03,SE,129,0.0,1.0,93,0.00,CLR,FEW,0.00,WeatherDisplay:10.37,2013-09-29 06:59:00,
2013-09-29 03:04:00,58.1,56.1,30.03,ESE,120,0.0,0.0,93,0.00,CLR,FEW,0.00,WeatherDisplay:10.37,2013-09-29 07:04:00,
2013-09-29 03:09:00,58.1,56.1,30.03,ESE,120,0.0,0.0,93,0.00,CLR,FEW,0.00,WeatherDisplay:10.37,2013-09-29 07:09:00,
2013-09-29 03:19:00,58.1,56.1,30.03,ESE,120,0.0,0.0,93,0.00,CLR,FEW,0.00,WeatherDisplay:10.37,2013-09-29 07:19:00,
2013-09-29 03:29:00,58.1,56.1,30.03,ESE,120,0.0,0.0,93,0.00,CLR,FEW,0.00,WeatherDisplay:10.37,2013-09-29 07:29:00,
2013-09-29 03:39:00,58.5,56.7,30.00,SE,135,0.0,0.0,94,0.00,CLR,FEW,0.00,WeatherDisplay:10.37,2013-09-29 07:39:00,
2013-09-29 03:54:00,57.9,56.2,30.00,East,87,0.0,1.0,94,0.00,CLR,FEW,0.00,WeatherDisplay:10.37,2013-09-29 07:54:00,
2013-09-29 03:59:00,57.7,56.0,30.00,ESE,102,0.0,0.0,94,0.00,CLR,FEW,0.00,WeatherDisplay:10.37,2013-09-29 07:59:00,
2013-09-29 04:04:00,57.6,55.8,30.00,ESE,105,0.0,0.0,94,0.00,CLR,FEW,0.00,WeatherDisplay:10.37,2013-09-29 08:04:00,
2013-09-29 04:09:00,57.6,55.8,30.00,ESE,105,0.0,0.0,94,0.00,CLR,FEW,0.00,WeatherDisplay:10.37,2013-09-29 08:09:00,
2013-09-29 04:19:00,57.6,55.8,30.00,ESE,105,0.0,0.0,94,0.00,CLR,FEW,0.00,WeatherDisplay:10.37,2013-09-29 08:19:00,
2013-09-29 04:29:00,57.4,55.7,30.00,ESE,111,0.0,1.0,94,0.00,CLR,FEW,0.00,WeatherDisplay:10.37,2013-09-29 08:29:00,
2013-09-29 04:34:00,57.4,56.0,30.00,ESE,116,0.0,1.0,95,0.00,CLR,FEW,0.00,WeatherDisplay:10.37,2013-09-29 08:34:00,
2013-09-29 04:39:00,57.4,56.0,30.00,ESE,119,0.0,1.0,95,0.00,CLR,FEW,0.00,WeatherDisplay:10.37,2013-09-29 08:39:00,
2013-09-29 04:49:00,57.4,56.0,30.00,SE,140,0.0,3.0,95,0.00,CLR,FEW,0.00,WeatherDisplay:10.37,2013-09-29 08:49:00,
2013-09-29 04:59:00,57.4,56.0,30.00,ESE,109,0.0,1.0,95,0.00,CLR,FEW,0.00,WeatherDisplay:10.37,2013-09-29 08:59:00,
2013-09-29 05:04:00,57.4,56.0,30.00,ESE,111,1.0,1.0,95,0.00,CLR,FEW,0.00,WeatherDisplay:10.37,2013-09-29 09:04:00,
2013-09-29 05:09:00,57.4,56.0,30.00,ESE,107,1.0,0.0,95,0.00,CLR,FEW,0.00,WeatherDisplay:10.37,2013-09-29 09:09:00,
2013-09-29 05:19:00,57.4,56.0,30.00,SE,129,1.0,1.0,95,0.00,CLR,FEW,0.00,WeatherDisplay:10.37,2013-09-29 09:19:00,
2013-09-29 05:29:00,57.2,55.8,30.00,ESE,105,1.0,0.0,95,0.00,CLR,FEW,0.00,WeatherDisplay:10.37,2013-09-29 09:29:00,
2013-09-29 05:39:00,57.2,55.8,30.00,ESE,103,0.0,1.0,95,0.00,CLR,FEW,0.00,WeatherDisplay:10.37,2013-09-29 09:39:00,
2013-09-29 05:49:00,57.2,55.8,30.00,East,100,0.0,1.0,95,0.00,CLR,FEW,0.00,WeatherDisplay:10.37,2013-09-29 09:49:00,
2013-09-29 05:59:00,57.0,55.9,30.00,East,100,0.0,1.0,96,0.00,CLR,FEW,0.00,WeatherDisplay:10.37,2013-09-29 09:59:00,
2013-09-29 06:04:00,57.0,55.9,30.00,East,100,0.0,1.0,96,0.00,CLR,FEW,0.00,WeatherDisplay:10.37,2013-09-29 10:04:00,
2013-09-29 06:09:00,57.0,55.9,30.00,East,100,0.0,0.0,96,0.00,CLR,FEW,0.00,WeatherDisplay:10.37,2013-09-29 10:09:00,
2013-09-29 06:19:00,56.8,55.7,30.00,East,100,0.0,0.0,96,0.00,CLR,FEW,0.00,WeatherDisplay:10.37,2013-09-29 10:19:00,
2013-09-29 06:29:00,56.8,55.7,30.00,East,100,0.0,0.0,96,0.00,CLR,FEW,0.00,WeatherDisplay:10.37,2013-09-29 10:29:00,
2013-09-29 06:39:00,56.8,56.0,30.00,East,100,0.0,0.0,97,0.00,CLR,FEW,0.00,WeatherDisplay:10.37,2013-09-29 10:39:00,
2013-09-29 06:49:00,57.0,56.2,30.00,ESE,105,0.0,1.0,97,0.00,CLR,FEW,0.00,WeatherDisplay:10.37,2013-09-29 10:49:00,
2013-09-29 06:59:00,57.0,56.2,30.00,ESE,105,0.0,1.0,97,0.00,CLR,FEW,0.00,WeatherDisplay:10.37,2013-09-29 10:59:00,
2013-09-29 07:04:00,57.2,56.4,30.00,ESE,105,0.0,0.0,97,0.00,CLR,FEW,0.00,WeatherDisplay:10.37,2013-09-29 11:04:00,
2013-09-29 07:09:00,57.2,56.4,30.00,SE,126,0.0,2.0,97,0.00,CLR,FEW,0.00,WeatherDisplay:10.37,2013-09-29 11:09:00,
2013-09-29 07:19:00,57.0,56.2,30.00,SE,133,1.0,1.0,97,0.00,CLR,FEW,0.00,WeatherDisplay:10.37,2013-09-29 11:19:00,
2013-09-29 07:29:00,57.2,56.4,30.00,ESE,120,1.0,3.0,97,0.00,CLR,FEW,0.00,WeatherDisplay:10.37,2013-09-29 11:29:00,
2013-09-29 07:39:00,57.2,56.4,30.00,ESE,120,1.0,1.0,97,0.00,CLR,FEW,0.00,WeatherDisplay:10.37,2013-09-29 11:39:00,
2013-09-29 07:49:00,57.6,57.0,30.00,ESE,120,0.0,1.0,98,0.00,CLR,FEW,0.00,WeatherDisplay:10.37,2013-09-29 11:49:00,
2013-09-29 07:59:00,57.6,57.0,30.00,ESE,120,0.0,0.0,98,0.00,CLR,FEW,0.00,WeatherDisplay:10.37,2013-09-29 11:59:00,
2013-09-29 08:04:00,57.7,57.2,30.00,ESE,120,0.0,0.0,98,0.00,CLR,FEW,0.00,WeatherDisplay:10.37,2013-09-29 12:04:00,
2013-09-29 08:09:00,57.7,57.2,30.00,ESE,120,0.0,0.0,98,0.00,CLR,FEW,0.00,WeatherDisplay:10.37,2013-09-29 12:09:00,
2013-09-29 08:19:00,58.6,58.1,30.00,SSE,161,0.0,0.0,98,0.00,CLR,FEW,0.00,WeatherDisplay:10.37,2013-09-29 12:19:00,
2013-09-29 08:24:00,58.6,58.1,30.00,SSE,155,0.0,6.0,98,0.00,CLR,FEW,0.00,WeatherDisplay:10.37,2013-09-29 12:24:00,
2013-09-29 08:29:00,59.0,58.4,30.00,ESE,114,1.0,6.0,98,0.00,CLR,FEW,0.00,WeatherDisplay:10.37,2013-09-29 12:29:00,
2013-09-29 08:39:00,59.7,59.2,30.00,ESE,110,1.0,1.0,98,0.00,CLR,FEW,0.00,WeatherDisplay:10.37,2013-09-29 12:39:00,
2013-09-29 08:49:00,60.3,59.4,30.00,SSE,152,1.0,5.0,97,0.00,CLR,FEW,0.00,WeatherDisplay:10.37,2013-09-29 12:49:00,
2013-09-29 08:59:00,60.6,59.5,30.00,SE,139,1.0,1.0,96,0.00,CLR,FEW,0.00,WeatherDisplay:10.37,2013-09-29 12:59:00,
2013-09-29 09:04:00,60.8,59.4,30.00,SSE,154,1.0,0.0,95,0.00,CLR,FEW,0.00,WeatherDisplay:10.37,2013-09-29 13:04:00,
2013-09-29 09:09:00,60.8,59.4,30.00,SE,140,1.0,0.0,95,0.00,CLR,FEW,0.00,WeatherDisplay:10.37,2013-09-29 13:09:00,
2013-09-29 09:19:00,62.1,60.3,30.00,SE,143,0.0,1.0,94,0.00,CLR,FEW,0.00,WeatherDisplay:10.37,2013-09-29 13:19:00,
2013-09-29 09:29:00,62.6,59.6,30.00,SSE,156,1.0,1.0,90,0.00,CLR,FEW,0.00,WeatherDisplay:10.37,2013-09-29 13:29:00,
2013-09-29 09:39:00,62.8,59.5,30.00,SE,127,0.0,0.0,89,0.00,CLR,FEW,0.00,WeatherDisplay:10.37,2013-09-29 13:39:00,
2013-09-29 09:49:00,64.2,60.3,30.00,SSE,157,0.0,0.0,87,0.00,CLR,FEW,0.00,WeatherDisplay:10.37,2013-09-29 13:49:00,
2013-09-29 09:59:00,65.3,60.3,30.00,SW,231,0.0,0.0,84,0.00,CLR,FEW,0.00,WeatherDisplay:10.37,2013-09-29 13:59:00,
2013-09-29 10:04:00,65.8,60.5,30.00,SSW,194,0.0,1.0,83,0.00,CLR,FEW,0.00,WeatherDisplay:10.37,2013-09-29 14:04:00,
2013-09-29 10:09:00,66.0,60.7,30.00,SSE,148,0.0,1.0,83,0.00,CLR,FEW,0.00,WeatherDisplay:10.37,2013-09-29 14:09:00,
2013-09-29 10:19:00,67.5,61.1,30.00,SE,133,0.0,0.0,80,0.00,CLR,FEW,0.00,WeatherDisplay:10.37,2013-09-29 14:19:00,
2013-09-29 10:24:00,67.5,61.1,30.00,ESE,121,0.0,0.0,80,0.00,CLR,FEW,0.00,WeatherDisplay:10.37,2013-09-29 14:24:00,
2013-09-29 10:29:00,67.6,60.9,30.00,ESE,120,0.0,0.0,79,0.00,CLR,FEW,0.00,WeatherDisplay:10.37,2013-09-29 14:29:00,
2013-09-29 10:39:00,68.0,61.2,30.00,SE,137,0.0,0.0,79,0.00,CLR,FEW,0.00,WeatherDisplay:10.37,2013-09-29 14:39:00,
2013-09-29 10:49:00,68.9,61.4,30.00,SE,124,0.0,0.0,77,0.00,CLR,FEW,0.00,WeatherDisplay:10.37,2013-09-29 14:49:00,
2013-09-29 10:59:00,71.6,61.7,30.00,SE,136,0.0,1.0,71,0.00,CLR,FEW,0.00,WeatherDisplay:10.37,2013-09-29 14:59:00,
2013-09-29 11:04:00,71.6,60.9,30.00,ESE,122,0.0,1.0,69,0.00,CLR,FEW,0.00,WeatherDisplay:10.37,2013-09-29 15:04:00,
2013-09-29 11:09:00,70.9,61.4,30.00,ESE,117,0.0,1.0,72,0.00,CLR,FEW,0.00,WeatherDisplay:10.37,2013-09-29 15:09:00,
2013-09-29 11:19:00,71.2,62.5,30.00,SE,130,0.0,0.0,74,0.00,CLR,FEW,0.00,WeatherDisplay:10.37,2013-09-29 15:19:00,
2013-09-29 11:29:00,71.1,62.4,29.97,SE,132,1.0,4.0,74,0.00,CLR,FEW,0.00,WeatherDisplay:10.37,2013-09-29 15:29:00,
2013-09-29 11:39:00,70.9,61.8,30.00,South,175,1.0,0.0,73,0.00,CLR,FEW,0.00,WeatherDisplay:10.37,2013-09-29 15:39:00,
2013-09-29 11:49:00,70.2,61.5,30.00,South,186,0.0,1.0,74,0.00,CLR,FEW,0.00,WeatherDisplay:10.37,2013-09-29 15:49:00,
2013-09-29 11:59:00,70.5,61.8,29.97,South,191,0.0,0.0,74,0.00,CLR,FEW,0.00,WeatherDisplay:10.37,2013-09-29 15:59:00,
2013-09-29 12:04:00,70.5,61.8,29.97,SW,236,0.0,0.0,74,0.00,CLR,FEW,0.00,WeatherDisplay:10.37,2013-09-29 16:04:00,
2013-09-29 12:09:00,70.5,61.8,29.97,South,189,0.0,0.0,74,0.00,CLR,FEW,0.00,WeatherDisplay:10.37,2013-09-29 16:09:00,
2013-09-29 12:19:00,70.5,62.2,29.97,ESE,112,0.0,1.0,75,0.00,CLR,FEW,0.00,WeatherDisplay:10.37,2013-09-29 16:19:00,
2013-09-29 12:24:00,70.9,62.9,29.97,ESE,115,0.0,0.0,76,0.00,CLR,FEW,0.00,WeatherDisplay:10.37,2013-09-29 16:24:00,
2013-09-29 12:29:00,71.8,63.4,29.97,ESE,115,0.0,0.0,75,0.00,CLR,FEW,0.00,WeatherDisplay:10.37,2013-09-29 16:29:00,
2013-09-29 12:39:00,72.0,63.2,29.97,ESE,109,0.0,0.0,74,0.00,CLR,FEW,0.00,WeatherDisplay:10.37,2013-09-29 16:39:00,
2013-09-29 12:49:00,72.0,63.2,29.97,ESE,112,0.0,1.0,74,0.00,CLR,FEW,0.00,WeatherDisplay:10.37,2013-09-29 16:49:00,
2013-09-29 12:59:00,72.0,62.4,29.97,SSE,166,0.0,0.0,72,0.00,CLR,FEW,0.00,WeatherDisplay:10.37,2013-09-29 16:59:00,
2013-09-29 13:04:00,71.8,63.0,29.97,SE,124,0.0,0.0,74,0.00,CLR,FEW,0.00,WeatherDisplay:10.37,2013-09-29 17:04:00,
2013-09-29 13:09:00,72.1,63.0,29.97,ESE,112,0.0,0.0,73,0.00,CLR,FEW,0.00,WeatherDisplay:10.37,2013-09-29 17:09:00,
2013-09-29 13:19:00,72.9,62.9,29.97,ESE,108,1.0,4.0,71,0.00,CLR,FEW,0.00,WeatherDisplay:10.37,2013-09-29 17:19:00,
2013-09-29 13:29:00,72.5,63.0,29.97,SE,132,1.0,0.0,72,0.00,CLR,FEW,0.00,WeatherDisplay:10.37,2013-09-29 17:29:00,
2013-09-29 13:39:00,72.7,62.3,29.97,ESE,121,0.0,0.0,70,0.00,CLR,FEW,0.00,WeatherDisplay:10.37,2013-09-29 17:39:00,
2013-09-29 13:49:00,73.8,63.0,29.97,SW,224,0.0,0.0,69,0.00,CLR,FEW,0.00,WeatherDisplay:10.37,2013-09-29 17:49:00,
2013-09-29 13:59:00,74.3,63.5,29.97,SSE,155,0.0,0.0,69,0.00,CLR,FEW,0.00,WeatherDisplay:10.37,2013-09-29 17:59:00,
2013-09-29 14:04:00,74.1,62.0,29.97,SE,135,0.0,1.0,66,0.00,CLR,FEW,0.00,WeatherDisplay:10.37,2013-09-29 18:04:00,
2013-09-29 14:09:00,73.9,61.9,29.94,South,185,0.0,1.0,66,0.00,CLR,FEW,0.00,WeatherDisplay:10.37,2013-09-29 18:09:00,
2013-09-29 14:19:00,74.1,62.5,29.94,SSE,162,1.0,1.0,67,0.00,CLR,FEW,0.00,WeatherDisplay:10.37,2013-09-29 18:19:00,
2013-09-29 14:29:00,73.8,61.7,29.94,South,185,0.0,1.0,66,0.00,CLR,FEW,0.00,WeatherDisplay:10.37,2013-09-29 18:29:00,
2013-09-29 14:39:00,73.8,62.5,29.94,SW,215,0.0,0.0,68,0.00,CLR,FEW,0.00,WeatherDisplay:10.37,2013-09-29 18:39:00,
2013-09-29 14:49:00,73.8,62.5,29.94,SW,220,0.0,0.0,68,0.00,CLR,FEW,0.00,WeatherDisplay:10.37,2013-09-29 18:49:00,
2013-09-29 14:59:00,73.8,62.5,29.94,SW,220,0.0,0.0,68,0.00,CLR,FEW,0.00,WeatherDisplay:10.37,2013-09-29 18:59:00,
2013-09-29 15:04:00,73.8,62.5,29.94,SW,220,0.0,0.0,68,0.00,CLR,FEW,0.00,WeatherDisplay:10.37,2013-09-29 19:04:00,
2013-09-29 15:09:00,72.5,61.7,29.94,SW,220,0.0,1.0,69,0.00,CLR,FEW,0.00,WeatherDisplay:10.37,2013-09-29 19:09:00,
2013-09-29 15:19:00,72.7,61.9,29.94,SSW,195,0.0,0.0,69,0.00,CLR,FEW,0.00,WeatherDisplay:10.37,2013-09-29 19:19:00,
2013-09-29 15:29:00,72.0,62.0,29.94,SSW,205,0.0,0.0,71,0.00,CLR,FEW,0.00,WeatherDisplay:10.37,2013-09-29 19:29:00,
2013-09-29 15:39:00,72.0,62.4,29.94,SW,220,0.0,1.0,72,0.00,CLR,FEW,0.00,WeatherDisplay:10.37,2013-09-29 19:39:00,
2013-09-29 15:49:00,71.2,62.5,29.94,SW,220,0.0,0.0,74,0.00,CLR,FEW,0.00,WeatherDisplay:10.37,2013-09-29 19:49:00,
2013-09-29 15:54:00,71.2,62.5,29.94,SW,220,0.0,0.0,74,0.00,CLR,FEW,0.00,WeatherDisplay:10.37,2013-09-29 19:54:00,
2013-09-29 15:59:00,70.9,62.6,29.94,SW,220,0.0,0.0,75,0.00,CLR,FEW,0.00,WeatherDisplay:10.37,2013-09-29 19:59:00,
2013-09-29 16:04:00,70.5,62.6,29.94,SW,220,0.0,0.0,76,0.00,CLR,FEW,0.00,WeatherDisplay:10.37,2013-09-29 20:04:00,
2013-09-29 16:09:00,70.5,62.6,29.94,SW,222,0.0,0.0,76,0.00,CLR,FEW,0.00,WeatherDisplay:10.37,2013-09-29 20:09:00,
2013-09-29 16:19:00,70.5,63.7,29.94,SW,225,0.0,0.0,79,0.00,CLR,FEW,0.00,WeatherDisplay:10.37,2013-09-29 20:19:00,
2013-09-29 16:24:00,70.3,63.5,29.94,SW,225,0.0,0.0,79,0.00,CLR,FEW,0.00,WeatherDisplay:10.37,2013-09-29 20:24:00,
2013-09-29 16:29:00,70.0,63.2,29.94,SW,225,0.0,0.0,79,0.00,CLR,FEW,0.00,WeatherDisplay:10.37,2013-09-29 20:29:00,
2013-09-29 16:39:00,69.6,63.2,29.94,SW,225,0.0,0.0,80,0.00,CLR,FEW,0.00,WeatherDisplay:10.37,2013-09-29 20:39:00,
2013-09-29 16:49:00,69.3,63.2,29.94,SW,225,0.0,0.0,81,0.00,CLR,FEW,0.00,WeatherDisplay:10.37,2013-09-29 20:49:00,
2013-09-29 16:59:00,69.1,63.4,29.94,SW,225,0.0,0.0,82,0.00,CLR,FEW,0.00,WeatherDisplay:10.37,2013-09-29 20:59:00,
2013-09-29 17:04:00,68.9,63.2,29.94,SW,225,0.0,0.0,82,0.00,CLR,FEW,0.00,WeatherDisplay:10.37,2013-09-29 21:04:00,
2013-09-29 17:09:00,68.9,63.2,29.94,SW,225,0.0,0.0,82,0.00,CLR,FEW,0.00,WeatherDisplay:10.37,2013-09-29 21:09:00,
2013-09-29 17:19:00,68.7,63.0,29.94,SW,225,0.0,0.0,82,0.00,CLR,FEW,0.00,WeatherDisplay:10.37,2013-09-29 21:19:00,
2013-09-29 17:29:00,68.7,63.3,29.91,SW,225,0.0,0.0,83,0.00,CLR,FEW,0.00,WeatherDisplay:10.37,2013-09-29 21:29:00,
2013-09-29 17:39:00,68.7,63.7,29.94,SW,225,0.0,0.0,84,0.00,CLR,FEW,0.00,WeatherDisplay:10.37,2013-09-29 21:39:00,
2013-09-29 17:49:00,68.5,63.5,29.94,SW,225,0.0,0.0,84,0.00,CLR,FEW,0.00,WeatherDisplay:10.37,2013-09-29 21:49:00,
2013-09-29 17:59:00,68.5,63.5,29.94,SW,225,0.0,0.0,84,0.00,CLR,FEW,0.00,WeatherDisplay:10.37,2013-09-29 21:59:00,
2013-09-29 18:04:00,68.5,63.5,29.94,SW,225,0.0,0.0,84,0.00,CLR,FEW,0.00,WeatherDisplay:10.37,2013-09-29 22:04:00,
2013-09-29 18:09:00,68.5,63.5,29.94,SW,225,0.0,0.0,84,0.00,CLR,FEW,0.00,WeatherDisplay:10.37,2013-09-29 22:09:00,
2013-09-29 18:19:00,68.4,63.3,29.94,SW,225,0.0,0.0,84,0.00,CLR,FEW,0.00,WeatherDisplay:10.37,2013-09-29 22:19:00,
2013-09-29 18:29:00,68.2,63.5,29.94,SW,225,0.0,0.0,85,0.00,CLR,FEW,0.00,WeatherDisplay:10.37,2013-09-29 22:29:00,
2013-09-29 18:39:00,68.0,63.3,29.94,SW,225,0.0,0.0,85,0.00,CLR,FEW,0.00,WeatherDisplay:10.37,2013-09-29 22:39:00,
2013-09-29 18:49:00,68.0,63.7,29.94,SW,225,0.0,0.0,86,0.00,CLR,FEW,0.00,WeatherDisplay:10.37,2013-09-29 22:49:00,
2013-09-29 18:59:00,68.0,63.7,29.94,SW,225,0.0,0.0,86,0.00,CLR,FEW,0.00,WeatherDisplay:10.37,2013-09-29 22:59:00,
2013-09-29 19:04:00,68.0,63.7,29.94,SW,225,0.0,0.0,86,0.00,CLR,FEW,0.00,WeatherDisplay:10.37,2013-09-29 23:04:00,
2013-09-29 19:09:00,68.0,64.0,29.94,SW,225,0.0,0.0,87,0.00,CLR,FEW,0.00,WeatherDisplay:10.37,2013-09-29 23:09:00,
2013-09-29 19:19:00,67.6,63.6,29.94,SW,225,0.0,0.0,87,0.00,CLR,FEW,0.00,WeatherDisplay:10.37,2013-09-29 23:19:00,
2013-09-29 19:29:00,67.5,63.5,29.94,SW,225,0.0,0.0,87,0.00,CLR,FEW,0.00,WeatherDisplay:10.37,2013-09-29 23:29:00,
2013-09-29 19:34:00,67.5,63.8,29.94,SW,225,0.0,0.0,88,0.00,CLR,FEW,0.00,WeatherDisplay:10.37,2013-09-29 23:34:00,
2013-09-29 19:39:00,67.5,63.8,29.94,SW,225,0.0,0.0,88,0.00,CLR,FEW,0.00,WeatherDisplay:10.37,2013-09-29 23:39:00,
2013-09-29 19:49:00,67.8,64.5,29.94,WSW,241,0.0,1.0,89,0.00,CLR,FEW,0.00,WeatherDisplay:10.37,2013-09-29 23:49:00,
2013-09-29 19:59:00,68.2,63.8,29.94,SW,234,0.0,1.0,86,0.00,CLR,FEW,0.00,WeatherDisplay:10.37,2013-09-29 23:59:00,
2013-09-29 20:09:00,68.0,63.7,29.94,WSW,239,0.0,1.0,86,0.00,CLR,FEW,0.00,WeatherDisplay:10.37,2013-09-30 00:09:00,
2013-09-29 20:19:00,68.0,63.7,29.94,SW,235,0.0,0.0,86,0.00,CLR,FEW,0.00,WeatherDisplay:10.37,2013-09-30 00:19:00,
2013-09-29 20:24:00,68.0,63.7,29.94,SW,235,0.0,0.0,86,0.00,CLR,FEW,0.00,WeatherDisplay:10.37,2013-09-30 00:24:00,
2013-09-29 20:29:00,67.6,63.6,29.94,SW,235,0.0,0.0,87,0.00,CLR,FEW,0.00,WeatherDisplay:10.37,2013-09-30 00:29:00,
2013-09-29 20:39:00,67.5,63.5,29.94,SW,235,0.0,0.0,87,0.00,CLR,FEW,0.00,WeatherDisplay:10.37,2013-09-30 00:39:00,
2013-09-29 20:49:00,67.1,63.7,29.97,SW,235,0.0,0.0,89,0.00,CLR,FEW,0.00,WeatherDisplay:10.37,2013-09-30 00:49:00,
2013-09-29 20:59:00,66.7,63.7,29.97,SW,235,0.0,0.0,90,0.00,CLR,FEW,0.00,WeatherDisplay:10.37,2013-09-30 00:59:00,
2013-09-29 21:04:00,66.6,63.5,29.97,SW,235,0.0,0.0,90,0.00,CLR,FEW,0.00,WeatherDisplay:10.37,2013-09-30 01:04:00,
2013-09-29 21:09:00,66.6,63.9,29.97,SW,235,0.0,0.0,91,0.00,CLR,FEW,0.00,WeatherDisplay:10.37,2013-09-30 01:09:00,
2013-09-29 21:14:00,66.6,63.9,29.97,SW,235,0.0,0.0,91,0.00,CLR,FEW,0.00,WeatherDisplay:10.37,2013-09-30 01:14:00,
2013-09-29 21:19:00,66.4,63.7,29.97,SW,235,0.0,0.0,91,0.00,CLR,FEW,0.00,WeatherDisplay:10.37,2013-09-30 01:19:00,
2013-09-29 21:29:00,66.4,64.0,29.97,SW,235,0.0,0.0,92,0.00,CLR,FEW,0.00,WeatherDisplay:10.37,2013-09-30 01:29:00,
2013-09-29 21:39:00,66.0,63.9,29.94,SW,235,0.0,0.0,93,0.00,CLR,FEW,0.00,WeatherDisplay:10.37,2013-09-30 01:39:00,
2013-09-29 21:49:00,66.0,63.9,29.94,SW,235,0.0,0.0,93,0.00,CLR,FEW,0.00,WeatherDisplay:10.37,2013-09-30 01:49:00,
2013-09-29 21:59:00,65.8,64.1,29.94,SW,235,0.0,0.0,94,0.00,CLR,FEW,0.00,WeatherDisplay:10.37,2013-09-30 01:59:00,
2013-09-29 22:04:00,65.8,64.1,29.94,SW,235,0.0,0.0,94,0.00,CLR,FEW,0.00,WeatherDisplay:10.37,2013-09-30 02:04:00,
2013-09-29 22:09:00,65.7,63.9,29.94,SW,235,0.0,0.0,94,0.00,CLR,FEW,0.00,WeatherDisplay:10.37,2013-09-30 02:09:00,
2013-09-29 22:19:00,65.7,64.2,29.94,SW,235,0.0,0.0,95,0.00,CLR,FEW,0.00,WeatherDisplay:10.37,2013-09-30 02:19:00,
2013-09-29 22:29:00,65.7,64.2,29.94,SW,235,0.0,0.0,95,0.00,CLR,FEW,0.00,WeatherDisplay:10.37,2013-09-30 02:29:00,
2013-09-29 22:39:00,65.5,64.3,29.94,SW,235,0.0,0.0,96,0.00,CLR,FEW,0.00,WeatherDisplay:10.37,2013-09-30 02:39:00,
2013-09-29 22:49:00,65.5,64.3,29.94,SW,235,0.0,0.0,96,0.00,CLR,FEW,0.00,WeatherDisplay:10.37,2013-09-30 02:49:00,
2013-09-29 22:59:00,65.5,64.3,29.94,SW,235,0.0,0.0,96,0.00,CLR,FEW,0.00,WeatherDisplay:10.37,2013-09-30 02:59:00,
2013-09-29 23:04:00,65.7,64.5,29.94,SW,235,0.0,0.0,96,0.00,CLR,FEW,0.00,WeatherDisplay:10.37,2013-09-30 03:04:00,
2013-09-29 23:09:00,65.7,64.5,29.94,SW,235,0.0,0.0,96,0.00,CLR,FEW,0.00,WeatherDisplay:10.37,2013-09-30 03:09:00,
2013-09-29 23:19:00,65.7,64.8,29.94,SW,235,0.0,0.0,97,0.00,CLR,FEW,0.00,WeatherDisplay:10.37,2013-09-30 03:19:00,
2013-09-29 23:29:00,65.7,64.8,29.94,SW,235,0.0,0.0,97,0.00,CLR,FEW,0.00,WeatherDisplay:10.37,2013-09-30 03:29:00,
2013-09-29 23:39:00,65.5,64.6,29.94,SW,235,0.0,0.0,97,0.00,CLR,FEW,0.00,WeatherDisplay:10.37,2013-09-30 03:39:00,
2013-09-29 23:49:00,65.5,64.6,29.94,SW,235,0.0,0.0,97,0.00,CLR,FEW,0.00,WeatherDisplay:10.37,2013-09-30 03:49:00,
2013-09-29 23:59:00,65.5,64.6,29.94,SW,235,0.0,0.0,97,0.00,CLR,FEW,0.00,WeatherDisplay:10.37,2013-09-30 03:59:00,